Time;durP1;ratioP1;P1;durP2;ratioP2;P2;SDS_P1;SDS_P2;PMS_P1;PMS_P2;Temp;Humidity;BMP_temperature;BMP_pressure;BME280_temperature;BME280_humidity;BME280_pressure;Samples;Min_cycle;Max_cycle;Signal;HPM_P1;HPM_P2
2022/08/18 00:00:43;;;;;;;5.55;3.78;;;;;;;17.22;100.00;90928.50;5015301;28;20117;-67
2022/08/18 00:03:10;;;;;;;4.47;3.67;;;;;;;17.18;100.00;90926.84;5015275;28;20046;-66
2022/08/18 00:05:36;;;;;;;4.55;3.88;;;;;;;17.20;100.00;90938.84;5015242;28;20034;-67
2022/08/18 00:08:01;;;;;;;4.38;3.35;;;;;;;17.19;100.00;90925.72;5015063;28;20034;-67
2022/08/18 00:10:27;;;;;;;4.28;3.63;;;;;;;17.14;100.00;90934.06;5015013;28;20041;-67
2022/08/18 00:12:53;;;;;;;4.20;3.50;;;;;;;17.13;100.00;90932.50;5015017;28;20037;-67
2022/08/18 00:15:19;;;;;;;7.95;3.45;;;;;;;17.01;100.00;90926.09;5015067;28;20117;-67
2022/08/18 00:17:45;;;;;;;3.50;3.20;;;;;;;16.95;100.00;90921.31;5014937;28;20084;-67
2022/08/18 00:20:18;;;;;;;6.65;3.72;;;;;;;16.92;100.00;90930.09;5014929;28;20038;-67
2022/08/18 00:22:44;;;;;;;6.15;4.22;;;;;;;16.89;100.00;90938.84;5014923;28;20050;-67
2022/08/18 00:25:12;;;;;;;4.00;3.42;;;;;;;16.90;100.00;90933.13;5014914;28;20066;-67
2022/08/18 00:27:40;;;;;;;6.07;3.67;;;;;;;16.87;100.00;90935.69;5014725;28;20048;-67
2022/08/18 00:30:09;;;;;;;4.60;3.90;;;;;;;16.81;100.00;90932.50;5014596;28;20046;-67
2022/08/18 00:32:39;;;;;;;4.82;3.70;;;;;;;16.81;100.00;90932.50;5014765;28;20104;-67
2022/08/18 00:35:19;;;;;;;5.05;3.00;;;;;;;16.77;100.00;90948.53;5014747;28;20117;-67
2022/08/18 00:37:46;;;;;;;4.18;3.60;;;;;;;16.69;100.00;90940.63;5014815;28;20046;-67
2022/08/18 00:40:16;;;;;;;9.00;3.60;;;;;;;16.64;100.00;90940.84;5014832;28;20462;-67
2022/08/18 00:42:50;;;;;;;3.92;2.92;;;;;;;16.67;100.00;90942.88;5014853;28;20030;-67
2022/08/18 00:45:24;;;;;;;5.20;3.83;;;;;;;16.68;100.00;90936.38;5014476;28;20018;-67
2022/08/18 00:47:50;;;;;;;4.25;3.42;;;;;;;16.60;100.00;90942.69;5014550;28;20033;-67
2022/08/18 00:50:20;;;;;;;4.68;3.50;;;;;;;16.49;100.00;90939.72;5014385;28;20044;-67
2022/08/18 00:52:56;;;;;;;4.22;3.20;;;;;;;16.32;100.00;90943.47;5013219;28;20414;-67
2022/08/18 00:55:24;;;;;;;5.32;3.53;;;;;;;16.16;100.00;90945.34;5014516;28;20116;-67
2022/08/18 00:57:52;;;;;;;6.47;4.07;;;;;;;16.07;100.00;90944.69;5014258;28;20049;-67
2022/08/18 01:00:20;;;;;;;6.55;4.20;;;;;;;15.99;100.00;90953.69;5014341;28;20026;-67
2022/08/18 01:02:53;;;;;;;5.53;3.83;;;;;;;15.90;100.00;90942.28;5014279;28;20044;-67
2022/08/18 01:05:32;;;;;;;8.40;3.78;;;;;;;15.86;100.00;90942.97;5014329;28;20064;-67
2022/08/18 01:07:58;;;;;;;5.47;3.80;;;;;;;15.78;100.00;90945.78;5014034;28;20472;-67
2022/08/18 01:10:24;;;;;;;4.03;3.47;;;;;;;15.75;100.00;90944.56;5013559;28;20064;-67
2022/08/18 01:12:53;;;;;;;5.22;4.03;;;;;;;15.76;100.00;90948.81;5014140;28;20037;-67
2022/08/18 01:15:21;;;;;;;6.50;4.47;;;;;;;15.81;100.00;90945.91;5014080;28;20026;-67
2022/08/18 01:21:49;;;;;;;4.82;3.78;;;;;;;15.95;100.00;90942.84;5014189;28;20040;-67
2022/08/18 01:23:45;;;;;;;4.20;3.40;;;;;;;16.04;100.00;90934.66;5013724;28;20049;-66
2022/08/18 01:26:12;;;;;;;7.85;3.70;;;;;;;16.11;100.00;90942.91;5013764;28;20033;-67
2022/08/18 01:28:41;;;;;;;4.45;3.45;;;;;;;16.20;100.00;90937.38;5013601;28;20107;-67
2022/08/18 01:31:09;;;;;;;5.97;3.88;;;;;;;16.23;100.00;90931.31;5013538;28;20053;-67
2022/08/18 01:33:39;;;;;;;7.55;3.60;;;;;;;16.32;100.00;90943.47;5013527;28;20438;-67
2022/08/18 01:36:13;;;;;;;5.00;2.60;;;;;;;16.39;100.00;90932.91;5013529;28;21228;-67
2022/08/18 01:38:40;;;;;;;3.70;3.40;;;;;;;16.33;100.00;90920.09;5013417;28;20026;-67
2022/08/18 01:41:09;;;;;;;5.53;3.25;;;;;;;16.35;100.00;90926.69;5013414;28;20057;-67
2022/08/18 01:43:35;;;;;;;6.22;3.53;;;;;;;16.30;100.00;90929.63;5013390;28;20435;-67
2022/08/18 01:46:03;;;;;;;4.20;3.05;;;;;;;16.32;100.00;90924.69;5013326;28;20021;-67
2022/08/18 01:48:33;;;;;;;7.30;4.00;;;;;;;16.31;100.00;90925.03;5013513;28;20087;-67
2022/08/18 01:51:04;;;;;;;5.18;3.63;;;;;;;16.32;100.00;90916.63;5013204;28;20030;-67
2022/08/18 01:53:30;;;;;;;4.57;3.85;;;;;;;16.29;100.00;90914.66;5013111;28;20040;-67
2022/08/18 01:55:56;;;;;;;4.68;3.50;;;;;;;16.37;100.00;90919.06;5013095;28;20041;-67
2022/08/18 01:58:26;;;;;;;5.45;4.13;;;;;;;16.37;100.00;90916.38;5013185;28;20085;-66
2022/08/18 02:00:55;;;;;;;3.78;3.38;;;;;;;16.39;100.00;90922.19;5013070;28;20126;-67
2022/08/18 02:03:25;;;;;;;5.25;3.72;;;;;;;16.32;100.00;90926.59;5013034;28;20026;-67
2022/08/18 02:06:07;;;;;;;4.30;3.63;;;;;;;16.26;100.00;90923.38;5152541;22;20056;-69
2022/08/18 02:08:32;;;;;;;3.80;3.35;;;;;;;16.24;100.00;90930.19;5013054;28;20038;-69
2022/08/18 02:10:57;;;;;;;6.30;3.10;;;;;;;16.21;100.00;90918.25;5012884;28;20113;-69
2022/08/18 02:13:24;;;;;;;4.30;3.75;;;;;;;16.26;100.00;90920.72;5012973;28;20030;-69
2022/08/18 02:15:50;;;;;;;5.88;3.42;;;;;;;16.29;100.00;90922.69;5012883;28;20033;-70
2022/08/18 02:18:17;;;;;;;4.13;3.00;;;;;;;16.24;100.00;90917.56;5012851;28;20038;-70
2022/08/18 02:20:43;;;;;;;3.75;3.10;;;;;;;16.20;100.00;90919.38;5011924;28;20034;-70
2022/08/18 02:23:10;;;;;;;5.15;3.58;;;;;;;16.23;100.00;90921.38;5012790;28;20034;-70
2022/08/18 02:25:36;;;;;;;5.43;3.67;;;;;;;16.21;100.00;90931.66;5012906;28;20423;-70
2022/08/18 02:28:02;;;;;;;4.10;3.63;;;;;;;16.15;100.00;90925.00;5012699;28;20537;-69
2022/08/18 02:30:28;;;;;;;4.53;3.50;;;;;;;16.09;100.00;90926.34;5012554;28;20101;-69
2022/08/18 02:32:55;;;;;;;4.88;3.70;;;;;;;16.08;100.00;90930.16;5012833;28;20534;-69
2022/08/18 02:35:20;;;;;;;6.80;4.00;;;;;;;16.06;100.00;90922.44;5012498;28;20037;-70
2022/08/18 02:37:46;;;;;;;4.47;3.78;;;;;;;16.06;100.00;90929.72;5012514;28;20038;-70
2022/08/18 02:40:12;;;;;;;6.13;3.70;;;;;;;16.06;100.00;90918.97;5012456;28;20087;-70
2022/08/18 02:42:38;;;;;;;4.15;3.75;;;;;;;16.11;100.00;90927.59;5012476;28;20030;-70
2022/08/18 02:45:04;;;;;;;4.95;3.83;;;;;;;16.04;100.00;90926.59;5012342;28;20030;-70
2022/08/18 02:47:30;;;;;;;5.82;3.65;;;;;;;16.09;100.00;90924.44;5012412;28;20470;-70
2022/08/18 02:49:56;;;;;;;5.05;3.58;;;;;;;16.08;100.00;90927.47;5012232;28;20037;-70
2022/08/18 02:52:24;;;;;;;9.00;3.75;;;;;;;16.04;100.00;90931.97;5012216;28;20033;-70
2022/08/18 02:54:49;;;;;;;4.80;3.60;;;;;;;15.99;100.00;90929.53;5012420;28;20044;-70
2022/08/18 02:57:15;;;;;;;4.40;3.60;;;;;;;16.02;100.00;90939.56;5012232;28;20026;-70
2022/08/18 02:59:40;;;;;;;4.75;3.40;;;;;;;16.02;100.00;90923.47;5011944;28;20029;-70
2022/08/18 03:02:07;;;;;;;5.05;3.78;;;;;;;16.04;100.00;90929.28;5010856;28;20069;-69
2022/08/18 03:04:34;;;;;;;4.25;3.72;;;;;;;16.08;100.00;90924.78;5011820;28;20467;-70
2022/08/18 03:07:03;;;;;;;5.53;3.80;;;;;;;16.11;100.00;90926.81;5011984;28;20030;-70
2022/08/18 03:09:30;;;;;;;4.45;3.92;;;;;;;16.09;100.00;90929.81;5011984;28;20033;-70
2022/08/18 03:11:56;;;;;;;4.05;3.65;;;;;;;16.07;100.00;90926.69;5011901;28;20034;-70
2022/08/18 03:14:21;;;;;;;4.70;3.55;;;;;;;16.08;100.00;90920.19;5011840;28;20044;-70
2022/08/18 03:16:48;;;;;;;4.93;3.70;;;;;;;16.09;100.00;90923.66;5011884;28;20030;-70
2022/08/18 03:19:15;;;;;;;6.00;3.95;;;;;;;16.01;100.00;90917.34;5010535;28;20392;-70
2022/08/18 03:21:42;;;;;;;5.95;3.78;;;;;;;16.01;100.00;90917.34;5011824;28;20096;-70
2022/08/18 03:24:08;;;;;;;4.43;3.50;;;;;;;16.03;100.00;90920.44;5011714;28;20038;-71
2022/08/18 03:26:33;;;;;;;5.63;3.92;;;;;;;16.01;100.00;90919.22;5011758;28;20026;-69
2022/08/18 03:29:00;;;;;;;4.18;3.25;;;;;;;16.04;100.00;90921.22;5011614;28;20446;-70
2022/08/18 03:31:28;;;;;;;4.63;3.42;;;;;;;16.12;100.00;90923.00;5011408;28;20034;-70
2022/08/18 03:33:55;;;;;;;4.20;3.55;;;;;;;16.11;100.00;90929.50;5011707;28;20037;-70
2022/08/18 03:36:23;;;;;;;4.00;3.33;;;;;;;16.09;100.00;90934.41;5011517;28;20034;-70
2022/08/18 03:38:50;;;;;;;6.00;2.90;;;;;;;16.12;100.00;90933.75;5011575;28;20040;-70
2022/08/18 03:41:19;;;;;;;4.57;3.28;;;;;;;16.03;100.00;90930.41;5011555;28;20030;-70
2022/08/18 03:43:44;;;;;;;6.22;4.03;;;;;;;16.01;100.00;90929.97;5011576;28;20033;-69
2022/08/18 03:46:13;;;;;;;4.30;3.53;;;;;;;16.02;100.00;90928.84;5009914;28;20030;-69
2022/08/18 03:48:41;;;;;;;6.10;4.50;;;;;;;15.97;100.00;90937.16;5011365;28;20025;-70
2022/08/18 03:51:13;;;;;;;4.15;3.65;;;;;;;16.05;100.00;90930.84;5011345;28;20479;-69
2022/08/18 03:53:38;;;;;;;5.25;3.67;;;;;;;16.12;100.00;90939.09;5011488;28;20042;-69
2022/08/18 03:56:15;;;;;;;11.25;3.88;;;;;;;16.14;100.00;90942.22;5011393;28;20105;-69
2022/08/18 03:58:47;;;;;;;6.40;4.40;;;;;;;16.17;100.00;90945.00;5011464;28;20445;-69
2022/08/18 04:01:15;;;;;;;6.15;3.55;;;;;;;16.14;100.00;90936.84;5011406;28;20029;-70
2022/08/18 04:03:55;;;;;;;4.60;3.63;;;;;;;16.18;100.00;90943.09;5011386;28;20545;-69
2022/08/18 04:06:24;;;;;;;3.50;3.20;;;;;;;16.13;100.00;90956.75;5011093;28;20061;-69
2022/08/18 04:08:52;;;;;;;5.85;4.00;;;;;;;16.14;100.00;90956.41;5011327;28;20163;-70
2022/08/18 04:11:19;;;;;;;5.03;3.70;;;;;;;16.25;100.00;90951.31;5011177;28;20033;-69
2022/08/18 04:13:44;;;;;;;5.97;4.40;;;;;;;16.28;100.00;90952.56;5011330;28;20030;-69
2022/08/18 04:16:09;;;;;;;4.43;3.95;;;;;;;16.38;100.00;90962.81;5011118;28;20032;-70
2022/08/18 04:18:35;;;;;;;5.78;3.92;;;;;;;16.40;100.00;90955.97;5011174;28;20052;-69
2022/08/18 04:21:03;;;;;;;6.68;3.60;;;;;;;16.46;100.00;90969.94;5011244;28;20033;-69
2022/08/18 04:23:29;;;;;;;4.07;3.42;;;;;;;16.40;100.00;90965.91;5011430;28;20030;-69
2022/08/18 04:26:00;;;;;;;5.38;3.88;;;;;;;16.54;100.00;90960.16;5009799;28;20430;-70
2022/08/18 04:28:26;;;;;;;4.93;4.20;;;;;;;16.59;100.00;90960.69;5011055;28;20112;-69
2022/08/18 04:30:52;;;;;;;6.53;4.05;;;;;;;16.60;100.00;90961.47;5011338;28;20084;-70
2022/08/18 04:33:18;;;;;;;4.75;3.78;;;;;;;16.73;100.00;90958.41;5011066;28;20042;-69
2022/08/18 04:35:45;;;;;;;5.88;4.00;;;;;;;16.83;100.00;90957.13;5010967;28;20030;-70
2022/08/18 04:38:10;;;;;;;4.15;3.22;;;;;;;16.92;100.00;90946.22;5011034;28;20026;-69
2022/08/18 04:40:36;;;;;;;4.35;3.38;;;;;;;17.10;100.00;90938.56;5011224;28;20028;-69
2022/08/18 04:43:01;;;;;;;4.32;3.92;;;;;;;17.25;100.00;90943.94;5010992;28;20475;-69
2022/08/18 04:45:27;;;;;;;4.55;3.90;;;;;;;17.41;100.00;90943.16;5014024;28;20392;-69
2022/08/18 04:47:53;;;;;;;3.72;3.22;;;;;;;17.49;100.00;90950.22;5014555;28;20029;-69
2022/08/18 04:50:19;;;;;;;3.97;3.08;;;;;;;17.58;100.00;90959.69;5014406;28;20479;-70
2022/08/18 04:55:29;;;;;;;4.15;3.35;;;;;;;18.26;100.00;90945.00;5014281;28;20045;-70
2022/08/18 04:57:56;;;;;;;4.75;3.70;;;;;;;19.56;100.00;90936.16;5014322;28;20026;-69
2022/08/18 05:00:22;;;;;;;3.60;3.25;;;;;;;21.31;92.30;90942.53;5014317;28;20502;-69
2022/08/18 05:02:48;;;;;;;5.35;4.00;;;;;;;22.41;78.60;90942.53;5014214;28;20030;-69
2022/08/18 05:05:13;;;;;;;3.72;3.00;;;;;;;23.68;70.16;90956.84;5013972;28;20042;-69
2022/08/18 05:07:44;;;;;;;3.85;3.28;;;;;;;24.40;66.14;90958.31;5014178;28;20062;-69
2022/08/18 05:10:11;;;;;;;6.05;3.60;;;;;;;25.35;62.13;90962.59;5014031;28;20117;-69
2022/08/18 05:12:37;;;;;;;3.13;2.83;;;;;;;25.98;59.24;90960.59;5014005;28;20041;-69
2022/08/18 05:15:03;;;;;;;5.63;3.70;;;;;;;26.70;56.99;90960.72;5013903;28;20026;-70
2022/08/18 05:17:28;;;;;;;4.38;3.53;;;;;;;27.64;54.69;90958.41;5014013;28;20129;-70
2022/08/18 05:19:54;;;;;;;5.13;3.50;;;;;;;28.18;52.41;90964.56;5013950;28;20380;-70
2022/08/18 05:22:19;;;;;;;4.88;3.42;;;;;;;29.03;51.06;90973.22;5013892;28;20534;-70
2022/08/18 05:24:45;;;;;;;3.70;3.35;;;;;;;30.32;48.25;90976.72;5013659;28;20022;-70
2022/08/18 05:27:12;;;;;;;5.75;4.00;;;;;;;31.00;46.51;90981.25;5012545;28;20492;-70
2022/08/18 05:29:37;;;;;;;3.30;3.00;;;;;;;31.97;44.37;90971.06;5012439;28;20033;-70
2022/08/18 05:32:06;;;;;;;3.97;3.55;;;;;;;32.10;44.57;90972.59;5013460;28;20040;-70
2022/08/18 05:34:33;;;;;;;3.20;2.75;;;;;;;33.65;41.11;90978.78;5013899;28;20415;-71
2022/08/18 05:37:05;;;;;;;4.47;3.13;;;;;;;34.61;40.45;90990.09;5013652;28;20388;-71
2022/08/18 05:39:45;;;;;;;3.75;3.08;;;;;;;34.70;39.01;90993.63;5012410;28;20402;-71
2022/08/18 05:42:16;;;;;;;3.20;2.90;;;;;;;35.55;37.79;90986.53;5013555;28;20476;-71
2022/08/18 05:44:45;;;;;;;4.60;3.22;;;;;;;35.60;36.76;90990.66;5013396;28;20022;-71
2022/08/18 05:47:27;;;;;;;3.28;2.97;;;;;;;35.88;36.79;90999.72;5013521;28;20037;-71
2022/08/18 05:49:54;;;;;;;3.08;2.63;;;;;;;36.47;35.56;91002.94;5013464;28;20053;-71
2022/08/18 05:52:35;;;;;;;4.13;3.17;;;;;;;36.66;34.98;90998.06;5013267;28;20029;-71
2022/08/18 05:58:00;;;;;;;2.88;2.67;;;;;;;36.88;35.48;90998.56;5013481;28;20056;-72
2022/08/18 06:00:28;;;;;;;3.80;3.17;;;;;;;37.62;34.00;91004.38;5013432;28;20038;-71
2022/08/18 06:02:57;;;;;;;3.47;3.13;;;;;;;37.37;35.40;91002.88;5013227;28;20068;-71
2022/08/18 06:05:30;;;;;;;3.75;3.08;;;;;;;37.70;33.89;91003.50;5012954;28;20046;-71
2022/08/18 06:08:05;;;;;;;3.50;3.13;;;;;;;38.15;33.40;91004.31;5013105;28;20030;-71
2022/08/18 06:10:31;;;;;;;3.90;3.03;;;;;;;37.33;33.70;90999.53;5012954;28;20040;-71
2022/08/18 06:13:00;;;;;;;4.07;3.25;;;;;;;38.32;33.07;91007.41;5012985;28;20466;-71
2022/08/18 06:15:43;;;;;;;4.40;3.13;;;;;;;39.41;32.40;91002.41;5012978;28;20112;-71
2022/08/18 06:18:27;;;;;;;4.80;3.30;;;;;;;39.20;33.11;91004.44;5012869;28;20407;-71
2022/08/18 06:20:58;;;;;;;6.57;3.60;;;;;;;39.43;32.78;91010.28;5012864;28;20041;-71
2022/08/18 06:23:42;;;;;;;3.78;3.05;;;;;;;38.46;32.96;91003.06;5012810;28;20033;-71
2022/08/18 06:26:20;;;;;;;4.43;3.08;;;;;;;40.14;32.11;91010.84;5012635;28;20029;-71
2022/08/18 06:29:16;;;;;;;4.55;3.05;;;;;;;41.21;30.37;91002.81;5012698;28;20665;-71
2022/08/18 06:31:53;;;;;;;5.00;2.92;;;;;;;42.13;29.26;91006.22;5012631;28;20030;-71
2022/08/18 06:34:45;;;;;;;4.00;2.70;;;;;;;42.84;27.40;91017.22;5012465;28;20057;-71
2022/08/18 06:37:24;;;;;;;3.63;3.30;;;;;;;41.67;29.21;91012.97;5012263;28;20443;-71
2022/08/18 06:39:51;;;;;;;4.80;3.90;;;;;;;41.91;28.37;91012.50;5012471;28;20475;-71
2022/08/18 06:42:25;;;;;;;4.70;3.22;;;;;;;41.52;28.93;91007.53;5012464;28;20113;-70
2022/08/18 06:44:56;;;;;;;4.63;3.28;;;;;;;39.72;31.35;91004.56;5012560;28;20096;-70
2022/08/18 06:47:31;;;;;;;4.00;3.40;;;;;;;39.62;31.25;91002.44;5012486;28;20029;-70
2022/08/18 06:50:02;;;;;;;4.68;3.60;;;;;;;39.46;31.80;91003.75;5012372;28;20045;-70
2022/08/18 06:52:34;;;;;;;3.60;3.30;;;;;;;39.50;32.30;91001.53;5012144;28;20458;-71
2022/08/18 06:55:15;;;;;;;6.40;3.63;;;;;;;41.34;30.58;90993.97;5012177;28;20025;-71
2022/08/18 06:57:57;;;;;;;8.93;4.60;;;;;;;41.35;31.27;90989.97;5012139;28;20053;-71
2022/08/18 07:00:26;;;;;;;5.38;4.20;;;;;;;43.28;28.78;90994.00;5012095;28;20053;-71
2022/08/18 07:02:55;;;;;;;7.47;3.67;;;;;;;41.05;31.24;90992.31;5012071;28;20128;-71
2022/08/18 07:05:32;;;;;;;5.90;4.22;;;;;;;40.54;32.29;90979.25;5011860;28;20120;-71
2022/08/18 07:08:36;;;;;;;9.57;6.40;;;;;;;42.65;30.07;90984.16;5011539;28;20042;-71
2022/08/18 07:11:21;;;;;;;12.93;4.38;;;;;;;42.19;29.76;90992.25;5011493;28;20049;-71
2022/08/18 07:13:50;;;;;;;3.60;3.28;;;;;;;42.60;29.21;90993.31;5011829;28;20030;-71
2022/08/18 07:16:29;;;;;;;5.72;3.28;;;;;;;42.95;27.58;90978.81;5011845;28;20034;-71
2022/08/18 07:19:19;;;;;;;4.35;3.05;;;;;;;42.45;27.33;90985.16;5011848;28;20037;-71
2022/08/18 07:21:46;;;;;;;3.97;3.38;;;;;;;42.95;28.18;90990.00;5011841;28;20104;-71
2022/08/18 07:24:13;;;;;;;4.15;3.30;;;;;;;44.05;26.99;90991.41;5011648;28;20042;-71
2022/08/18 07:27:01;;;;;;;3.15;2.85;;;;;;;43.30;26.47;90985.88;5011743;28;20029;-71
2022/08/18 07:29:28;;;;;;;2.95;2.67;;;;;;;43.20;25.91;90981.78;5011702;28;20033;-71
2022/08/18 07:31:58;;;;;;;4.45;3.13;;;;;;;43.74;25.93;90984.19;5011483;28;20486;-71
2022/08/18 07:34:35;;;;;;;3.40;3.10;;;;;;;42.89;26.39;90980.03;5011554;28;20030;-71
2022/08/18 07:37:11;;;;;;;2.83;2.63;;;;;;;43.67;25.56;90979.84;5011613;28;20432;-71
2022/08/18 07:39:42;;;;;;;3.53;2.80;;;;;;;44.71;24.78;90987.41;5011582;28;20057;-71
2022/08/18 07:42:13;;;;;;;3.47;2.92;;;;;;;44.52;25.00;90978.13;5011605;28;20104;-71
2022/08/18 07:44:44;;;;;;;3.92;2.70;;;;;;;44.74;25.47;90975.13;5010157;28;20529;-71
2022/08/18 07:47:17;;;;;;;3.45;2.97;;;;;;;45.71;23.02;90975.69;5010354;28;20030;-71
2022/08/18 07:49:45;;;;;;;3.10;2.63;;;;;;;46.65;23.32;90982.06;5011468;28;20419;-70
2022/08/18 07:52:16;;;;;;;3.10;2.80;;;;;;;45.12;24.39;90977.34;5011447;28;20468;-70
2022/08/18 07:55:06;;;;;;;3.20;2.90;;;;;;;42.04;26.85;90972.91;5011405;28;20500;-70
2022/08/18 07:57:49;;;;;;;3.92;3.33;;;;;;;43.94;24.98;90972.59;5011448;28;20034;-70
2022/08/18 08:00:32;;;;;;;3.42;2.97;;;;;;;44.25;24.34;90981.88;5011390;28;20097;-70
2022/08/18 08:03:05;;;;;;;2.83;2.60;;;;;;;41.41;27.11;90976.00;5011403;28;20057;-70
2022/08/18 08:05:47;;;;;;;2.92;2.65;;;;;;;42.54;26.68;90975.00;5011156;28;20504;-70
2022/08/18 08:08:27;;;;;;;;;;;;;;;40.43;28.20;90968.81;5011717;28;20038;-69
2022/08/18 08:11:05;;;;;;;5.22;3.50;;;;;;;39.39;29.45;90973.53;5011259;28;19918;-69
2022/08/18 08:13:45;;;;;;;3.08;2.75;;;;;;;39.73;28.60;90972.69;5011223;28;20411;-68
2022/08/18 08:16:16;;;;;;;4.60;4.15;;;;;;;39.34;30.23;90977.81;5011197;28;20034;-68
2022/08/18 08:18:58;;;;;;;3.30;3.00;;;;;;;39.66;28.86;90973.13;5011806;28;20096;-69
2022/08/18 08:21:27;;;;;;;3.28;2.75;;;;;;;41.05;28.68;90969.97;5015050;28;20034;-69
2022/08/18 08:24:07;;;;;;;3.75;3.38;;;;;;;44.37;25.84;90967.25;5014947;28;20412;-69
2022/08/18 08:26:36;;;;;;;6.53;3.03;;;;;;;46.05;24.02;90970.41;5014937;28;20128;-69
2022/08/18 08:29:07;;;;;;;3.67;2.90;;;;;;;46.51;23.51;90978.44;5014931;28;20045;-69
2022/08/18 08:32:09;;;;;;;3.13;2.90;;;;;;;46.28;23.52;90974.44;5014909;28;20124;-69
2022/08/18 08:34:34;;;;;;;3.25;2.60;;;;;;;44.68;24.28;90974.44;5014650;28;20030;-69
2022/08/18 08:37:04;;;;;;;4.40;2.63;;;;;;;45.28;24.75;90968.75;5014760;28;20038;-69
2022/08/18 08:39:44;;;;;;;4.88;3.17;;;;;;;45.73;24.43;90962.63;5014757;28;20146;-69
2022/08/18 08:42:51;;;;;;;3.50;2.75;;;;;;;44.84;24.76;90974.78;5014702;28;20038;-69
2022/08/18 08:45:47;;;;;;;3.10;2.80;;;;;;;45.61;23.92;90978.09;5000671;28;20057;-69
2022/08/18 08:48:27;;;;;;;2.70;2.50;;;;;;;45.24;24.06;90973.13;5014611;28;20061;-71
2022/08/18 08:51:05;;;;;;;2.90;2.70;;;;;;;45.32;23.84;90969.25;5014775;28;20037;-71
2022/08/18 08:53:42;;;;;;;2.85;2.60;;;;;;;45.98;23.55;90969.72;5014464;28;20034;-71
2022/08/18 08:56:13;;;;;;;3.08;2.78;;;;;;;42.83;25.61;90965.31;5014684;28;20419;-70
2022/08/18 08:58:41;;;;;;;3.37;2.77;;;;;;;43.08;25.70;90964.25;5014367;28;20037;-70
2022/08/18 09:01:23;;;;;;;2.92;2.30;;;;;;;44.14;25.18;90963.81;5014365;28;20115;-71
2022/08/18 09:04:11;;;;;;;4.38;2.88;;;;;;;46.34;23.51;90958.22;5014367;28;20415;-71
2022/08/18 09:06:47;;;;;;;5.35;3.10;;;;;;;46.28;23.09;90971.63;5013857;28;20050;-71
2022/08/18 09:09:12;;;;;;;3.35;2.80;;;;;;;43.67;25.07;90973.47;5014218;28;20038;-71
2022/08/18 09:11:55;;;;;;;3.03;2.60;;;;;;;43.27;25.14;90958.88;5014010;28;20088;-70
2022/08/18 09:14:30;;;;;;;2.92;2.63;;;;;;;44.24;24.06;90958.66;5014031;28;20367;-71
2022/08/18 09:17:13;;;;;;;3.35;2.83;;;;;;;41.59;26.95;90953.22;5014322;28;20090;-71
2022/08/18 09:19:58;;;;;;;2.95;2.50;;;;;;;38.86;28.90;90944.03;5013984;28;20044;-70
2022/08/18 09:22:55;;;;;;;4.65;3.00;;;;;;;40.15;27.36;90943.47;5013757;28;20049;-70
2022/08/18 09:25:42;;;;;;;2.45;2.25;;;;;;;41.74;26.03;90950.22;5006217;28;20061;-71
2022/08/18 09:28:19;;;;;;;2.92;2.38;;;;;;;42.20;26.26;90949.81;5013861;28;20091;-70
2022/08/18 09:31:05;;;;;;;3.42;2.63;;;;;;;43.85;24.46;90940.03;5013327;28;20066;-71
2022/08/18 09:33:42;;;;;;;2.90;2.63;;;;;;;41.82;25.48;90935.28;5012405;28;20494;-71
2022/08/18 09:36:41;;;;;;;3.65;2.90;;;;;;;40.94;26.07;90933.63;5013714;28;20033;-70
2022/08/18 09:42:11;;;;;;;2.70;2.25;;;;;;;40.20;26.38;90925.25;5013881;28;20200;-70
2022/08/18 09:44:45;;;;;;;3.15;2.85;;;;;;;39.98;27.24;90931.41;5013390;28;20050;-70
2022/08/18 09:47:32;;;;;;;3.30;3.00;;;;;;;39.48;27.66;90926.84;5012534;28;20117;-70
2022/08/18 09:50:04;;;;;;;3.05;2.83;;;;;;;38.90;27.82;90928.66;5006373;28;20046;-70
2022/08/18 09:52:32;;;;;;;3.25;2.80;;;;;;;39.15;28.23;90918.13;5013300;28;20064;-70
2022/08/18 09:54:57;;;;;;;2.88;2.67;;;;;;;40.10;27.68;90931.00;5013322;28;20483;-70
2022/08/18 09:57:31;;;;;;;2.80;2.50;;;;;;;40.87;26.63;90923.72;5013376;28;20045;-70
2022/08/18 10:00:03;;;;;;;3.40;2.97;;;;;;;42.57;26.02;90924.38;5013295;28;20379;-70
2022/08/18 10:02:28;;;;;;;4.05;2.53;;;;;;;41.45;26.21;90921.44;5013239;28;20503;-71
2022/08/18 10:05:15;;;;;;;3.53;2.60;;;;;;;41.81;25.69;90916.94;5013172;28;20145;-70
2022/08/18 10:08:06;;;;;;;4.10;2.63;;;;;;;42.82;24.31;90907.81;5013170;28;20053;-70
2022/08/18 10:10:41;;;;;;;2.40;2.20;;;;;;;40.08;26.48;90900.09;5013039;28;20042;-70
2022/08/18 10:13:31;;;;;;;2.75;2.42;;;;;;;41.18;24.88;90908.88;5013065;28;20120;-70
2022/08/18 10:15:56;;;;;;;2.90;2.35;;;;;;;41.53;24.54;90905.72;5007663;28;20053;-70
2022/08/18 10:18:21;;;;;;;2.80;2.30;;;;;;;42.32;23.25;90914.22;5012954;28;20045;-70
2022/08/18 10:20:58;;;;;;;2.50;2.13;;;;;;;42.42;23.43;90910.63;5012887;28;20281;-70
2022/08/18 10:23:41;;;;;;;3.45;2.95;;;;;;;43.33;23.13;90917.59;5012830;28;20289;-70
2022/08/18 10:26:29;;;;;;;5.47;2.60;;;;;;;39.68;26.37;90911.34;5012847;28;20038;-70
2022/08/18 10:28:57;;;;;;;2.65;2.45;;;;;;;39.34;27.25;90905.44;5012756;28;20038;-70
2022/08/18 10:31:24;;;;;;;2.60;2.40;;;;;;;39.76;26.31;90898.50;5012644;28;20488;-70
2022/08/18 10:34:07;;;;;;;6.10;2.35;;;;;;;39.62;24.15;90902.97;5012571;28;20034;-70
2022/08/18 10:36:44;;;;;;;3.15;1.85;;;;;;;37.70;26.39;90906.31;5012635;28;20049;-70
2022/08/18 10:39:14;;;;;;;2.30;2.10;;;;;;;38.77;25.70;90908.00;5012590;28;20034;-70
2022/08/18 10:41:55;;;;;;;3.65;2.55;;;;;;;38.78;26.41;90912.31;5011741;28;20041;-70
2022/08/18 10:44:22;;;;;;;2.72;2.20;;;;;;;39.07;26.24;90898.25;5012376;28;20038;-70
2022/08/18 10:46:49;;;;;;;3.05;2.60;;;;;;;41.04;25.14;90904.25;5012463;28;20045;-70
2022/08/18 10:49:27;;;;;;;2.20;2.10;;;;;;;41.61;24.86;90897.59;5012397;28;20164;-70
2022/08/18 10:52:08;;;;;;;2.47;2.28;;;;;;;41.75;23.29;90902.22;5012326;28;20045;-70
2022/08/18 10:54:33;;;;;;;2.20;2.00;;;;;;;40.13;24.36;90892.25;5012216;28;20041;-70
2022/08/18 10:57:15;;;;;;;7.18;2.20;;;;;;;38.52;26.67;90893.50;5012316;28;20045;-70
2022/08/18 11:00:02;;;;;;;2.88;2.25;;;;;;;40.07;25.00;90892.97;5012237;28;20045;-70
2022/08/18 11:02:59;;;;;;;3.03;2.78;;;;;;;41.33;25.11;90888.38;5010540;28;20408;-70
2022/08/18 11:05:26;;;;;;;2.30;2.10;;;;;;;41.31;23.96;90888.13;5011784;28;20050;-71
2022/08/18 11:08:04;;;;;;;2.88;2.65;;;;;;;42.15;23.47;90883.47;5012097;28;20057;-70
2022/08/18 11:10:39;;;;;;;2.85;2.33;;;;;;;43.08;23.28;90887.88;5011922;28;20100;-70
2022/08/18 11:13:23;;;;;;;2.90;2.28;;;;;;;41.06;23.37;90879.41;5012043;28;20037;-70
2022/08/18 11:16:11;;;;;;;2.88;2.58;;;;;;;40.76;25.20;90883.81;5011978;28;20124;-70
2022/08/18 11:18:47;;;;;;;18.52;4.70;;;;;;;41.37;24.66;90886.13;5011925;28;20499;-70
2022/08/18 11:21:31;;;;;;;3.13;2.05;;;;;;;40.91;24.37;90882.38;5011931;28;20084;-70
2022/08/18 11:24:03;;;;;;;3.13;2.35;;;;;;;41.06;24.77;90885.00;5011768;28;20037;-71
2022/08/18 11:26:30;;;;;;;2.90;2.35;;;;;;;42.69;23.45;90888.75;5012077;28;20411;-70
2022/08/18 11:28:56;;;;;;;2.90;2.60;;;;;;;42.35;22.92;90888.03;5011827;28;20045;-70
2022/08/18 11:31:23;;;;;;;2.25;2.05;;;;;;;42.33;23.36;90879.41;5011680;28;20038;-71
2022/08/18 11:33:49;;;;;;;3.00;2.75;;;;;;;42.67;22.36;90882.91;5011614;28;20038;-70
2022/08/18 11:36:15;;;;;;;3.55;2.95;;;;;;;42.53;23.12;90881.16;5011656;28;20408;-71
2022/08/18 11:38:53;;;;;;;3.00;2.40;;;;;;;42.68;23.51;90870.44;5011794;28;20132;-70
2022/08/18 11:41:25;;;;;;;3.53;2.47;;;;;;;39.93;25.61;90876.38;5011606;28;20041;-67
2022/08/18 11:43:55;;;;;;;;;;;;;;;37.55;27.15;90879.81;5012218;28;20479;-70
2022/08/18 11:46:22;;;;;;;2.70;2.22;;;;;;;37.03;27.84;90874.59;5011484;28;19913;-70
2022/08/18 11:48:49;;;;;;;3.03;2.72;;;;;;;36.78;27.77;90866.78;5011755;28;20056;-70
2022/08/18 11:51:16;;;;;;;4.63;2.83;;;;;;;37.84;27.92;90873.50;5011533;28;20120;-70
2022/08/18 11:53:47;;;;;;;6.05;4.53;;;;;;;39.03;26.75;90867.09;5015228;28;20041;-70
2022/08/18 11:56:13;;;;;;;2.47;2.27;;;;;;;40.51;24.26;90863.13;5017981;28;20072;-70
2022/08/18 11:58:45;;;;;;;2.60;2.13;;;;;;;41.25;25.71;90852.59;5016741;28;20093;-70
2022/08/18 12:01:45;;;;;;;2.63;2.17;;;;;;;41.50;24.06;90856.47;5017994;28;20277;-70
2022/08/18 12:04:37;;;;;;;2.40;2.20;;;;;;;40.58;25.42;90852.28;5018136;28;20116;-70